createdAt,value
2023-01-17T00:02:33.106Z,99004.97
2023-01-17T00:05:59.343Z,98993.75
2023-01-17T00:09:23.205Z,98998.09
2023-01-17T00:12:31.536Z,98996.47
2023-01-17T00:15:40.200Z,99002.50
2023-01-17T00:19:05.950Z,99007.06
2023-01-17T00:22:38.930Z,99011.41
2023-01-17T00:26:02.754Z,99021.16
2023-01-17T00:29:07.732Z,99030.13
2023-01-17T00:32:12.829Z,99037.53
2023-01-17T00:35:19.403Z,99035.09
2023-01-17T00:38:27.513Z,99033.22
2023-01-17T00:41:32.988Z,99033.09
2023-01-17T00:44:57.164Z,99034.00
2023-01-17T00:48:21.468Z,99026.28
2023-01-17T00:51:47.505Z,99024.69
2023-01-17T00:55:11.580Z,99030.47
2023-01-17T00:58:35.496Z,99031.03
2023-01-17T01:01:59.759Z,99021.59
2023-01-17T01:05:24.085Z,99016.03
2023-01-17T01:08:49.049Z,99014.22
2023-01-17T01:12:12.992Z,99012.38
2023-01-17T01:15:36.633Z,99007.09
2023-01-17T01:19:00.749Z,99009.97
2023-01-17T01:22:24.902Z,99019.91
2023-01-17T01:25:49.024Z,99024.63
2023-01-17T01:29:13.129Z,99048.88
2023-01-17T01:32:37.392Z,99050.66
2023-01-17T01:35:43.211Z,99050.19
2023-01-17T01:38:50.527Z,99046.72
2023-01-17T01:41:55.843Z,99044.47
2023-01-17T01:45:01.642Z,99047.59
2023-01-17T01:48:35.052Z,99037.53
2023-01-17T01:51:44.791Z,99042.66
2023-01-17T01:54:59.299Z,99039.34
2023-01-17T01:58:11.685Z,99038.31
2023-01-17T02:01:18.233Z,99032.72
2023-01-17T02:04:25.420Z,99038.16
2023-01-17T02:07:35.939Z,99037.59
2023-01-17T02:10:44.324Z,99035.38
2023-01-17T02:13:49.698Z,99022.13
2023-01-17T02:16:57.863Z,99025.81
2023-01-17T02:20:36.936Z,99021.31
2023-01-17T02:24:00.378Z,99013.16
2023-01-17T02:27:24.062Z,99022.66
2023-01-17T02:30:39.772Z,99012.84
2023-01-17T02:33:57.754Z,99011.69
2023-01-17T02:37:35.327Z,98997.75
2023-01-17T02:40:52.503Z,99002.44
2023-01-17T02:43:58.161Z,99002.44
2023-01-17T02:47:27.467Z,98983.69
2023-01-17T02:50:54.584Z,98982.28
2023-01-17T02:54:21.373Z,98978.66
2023-01-17T02:57:58.720Z,98964.25
2023-01-17T03:01:19.724Z,98967.44
2023-01-17T03:04:35.062Z,98965.38
2023-01-17T03:07:43.239Z,98957.38
2023-01-17T03:10:49.085Z,98947.56
2023-01-17T03:13:57.320Z,98944.00
2023-01-17T03:17:02.674Z,98946.72
2023-01-17T03:20:08.908Z,98947.91
2023-01-17T03:23:14.467Z,98937.13
2023-01-17T03:26:20.178Z,98937.00
2023-01-17T03:29:25.903Z,98942.28
2023-01-17T03:32:31.801Z,98940.94
2023-01-17T03:35:37.718Z,98951.38
2023-01-17T03:38:43.004Z,98958.31
2023-01-17T03:41:48.527Z,98943.78
2023-01-17T03:44:54.107Z,98935.69
2023-01-17T03:48:00.475Z,98945.91
2023-01-17T03:51:06.275Z,98951.31
2023-01-17T03:54:11.832Z,98951.81
2023-01-17T03:57:19.739Z,98941.06
2023-01-17T04:00:25.368Z,98941.63
2023-01-17T04:03:31.432Z,98941.50
2023-01-17T04:06:36.884Z,98939.03
2023-01-17T04:09:42.448Z,98933.63
2023-01-17T04:12:48.134Z,98941.75
2023-01-17T04:15:53.813Z,98934.16
2023-01-17T04:18:59.973Z,98927.56
2023-01-17T04:22:05.595Z,98929.91
2023-01-17T04:25:11.733Z,98922.69
2023-01-17T04:28:17.262Z,98906.53
2023-01-17T04:31:23.078Z,98922.63
2023-01-17T04:34:28.638Z,98931.88
2023-01-17T04:37:34.050Z,98933.19
2023-01-17T04:40:39.449Z,98929.91
2023-01-17T04:43:44.765Z,98928.88
2023-01-17T04:46:50.112Z,98919.91
2023-01-17T04:49:55.849Z,98910.75
2023-01-17T04:53:01.280Z,98926.13
2023-01-17T04:56:07.254Z,98932.13
2023-01-17T04:59:12.687Z,98923.00
2023-01-17T05:02:18.107Z,98923.66
2023-01-17T05:05:23.727Z,98931.34
2023-01-17T05:08:29.206Z,98923.09
2023-01-17T05:11:35.025Z,98929.34
2023-01-17T05:14:40.680Z,98929.66
2023-01-17T05:17:46.863Z,98923.00
2023-01-17T05:20:52.358Z,98929.09
2023-01-17T05:23:57.693Z,98927.72
2023-01-17T05:27:06.493Z,98910.44
2023-01-17T05:30:12.632Z,98913.41
2023-01-17T05:33:17.847Z,98918.19
2023-01-17T05:36:23.046Z,98915.75
2023-01-17T05:39:28.251Z,98913.25
2023-01-17T05:42:34.190Z,98908.69
2023-01-17T05:45:39.507Z,98906.69
2023-01-17T05:48:44.754Z,98904.78
2023-01-17T05:51:50.549Z,98903.41
2023-01-17T05:54:55.755Z,98900.44
2023-01-17T05:58:02.533Z,98891.63
2023-01-17T06:01:07.913Z,98904.13
2023-01-17T06:04:13.719Z,98913.31
2023-01-17T06:07:19.098Z,98897.56
2023-01-17T06:10:25.393Z,98904.78
2023-01-17T06:13:31.246Z,98904.28
2023-01-17T06:16:36.852Z,98880.03
2023-01-17T06:19:42.637Z,98878.28
2023-01-17T06:22:48.653Z,98855.63
2023-01-17T06:25:54.038Z,98853.69
2023-01-17T06:28:59.538Z,98857.06
2023-01-17T06:32:05.551Z,98857.88
2023-01-17T06:35:10.668Z,98862.59
2023-01-17T06:38:16.593Z,98865.88
2023-01-17T06:41:23.574Z,98884.53
2023-01-17T06:44:29.305Z,98890.19
2023-01-17T06:47:39.079Z,98904.69
2023-01-17T06:50:44.869Z,98910.91
2023-01-17T06:53:50.071Z,98917.34
2023-01-17T06:56:55.491Z,98911.03
2023-01-17T07:00:01.001Z,98909.13
2023-01-17T07:03:15.641Z,98897.25
2023-01-17T07:06:21.607Z,98895.47
2023-01-17T07:09:27.591Z,98891.38
2023-01-17T07:12:32.969Z,98878.13
2023-01-17T07:15:38.577Z,98874.19
2023-01-17T07:18:44.194Z,98859.63
2023-01-17T07:21:53.783Z,98858.44
2023-01-17T07:24:59.184Z,98857.66
2023-01-17T07:28:04.915Z,98860.44
2023-01-17T07:31:10.802Z,98855.72
2023-01-17T07:34:16.367Z,98843.47
2023-01-17T07:37:22.274Z,98831.13
2023-01-17T07:40:27.743Z,98835.63
2023-01-17T07:43:33.151Z,98842.13
2023-01-17T07:46:38.716Z,98844.75
2023-01-17T07:49:44.179Z,98834.09
2023-01-17T07:52:51.501Z,98820.91
2023-01-17T07:56:01.964Z,98826.66
2023-01-17T07:59:07.571Z,98830.41
2023-01-17T08:02:22.040Z,98816.31
2023-01-17T08:05:28.806Z,98809.84
2023-01-17T08:08:34.685Z,98807.69
2023-01-17T08:11:40.101Z,98806.16
2023-01-17T08:14:45.856Z,98818.19
2023-01-17T08:17:54.923Z,98818.66
2023-01-17T08:21:00.438Z,98807.28
2023-01-17T08:24:05.749Z,98794.72
2023-01-17T08:27:11.483Z,98806.44
2023-01-17T08:30:17.605Z,98803.50
2023-01-17T08:33:23.368Z,98791.78
2023-01-17T08:36:31.420Z,98780.38
2023-01-17T08:39:36.860Z,98770.88
2023-01-17T08:42:44.537Z,98780.31
2023-01-17T08:45:50.588Z,98772.84
2023-01-17T08:48:59.056Z,98751.03
2023-01-17T08:52:05.817Z,98746.53
2023-01-17T08:55:11.901Z,98740.28
2023-01-17T08:58:17.505Z,98739.47
2023-01-17T09:01:23.091Z,98741.25
2023-01-17T09:04:28.495Z,98729.41
2023-01-17T09:07:33.867Z,98740.13
2023-01-17T09:10:39.434Z,98752.78
2023-01-17T09:13:45.147Z,98754.81
2023-01-17T09:16:51.327Z,98757.84
2023-01-17T09:19:56.806Z,98766.53
2023-01-17T09:23:04.934Z,98756.13
2023-01-17T09:26:23.602Z,98751.72
2023-01-17T09:29:28.758Z,98743.41
2023-01-17T09:32:33.828Z,98743.47
2023-01-17T09:35:39.302Z,98743.44
2023-01-17T09:38:45.558Z,98743.88
2023-01-17T09:42:36.704Z,98734.44
2023-01-17T09:45:42.685Z,98725.09
2023-01-17T09:48:49.972Z,98731.13
2023-01-17T09:51:55.603Z,98728.72
2023-01-17T09:55:02.227Z,98730.63
2023-01-17T09:58:19.911Z,98713.59
2023-01-17T10:01:48.072Z,98711.78
2023-01-17T10:05:30.789Z,98692.41
2023-01-17T10:08:58.109Z,98698.19
2023-01-17T10:12:09.272Z,98703.25
2023-01-17T10:15:43.381Z,98690.41
2023-01-17T10:19:13.333Z,98682.22
2023-01-17T10:22:54.641Z,98683.22
2023-01-17T10:26:10.290Z,98673.50
2023-01-17T10:29:21.051Z,98670.00
2023-01-17T10:32:33.213Z,98682.78
2023-01-17T10:35:52.553Z,98689.06
2023-01-17T10:39:02.993Z,98701.53
2023-01-17T10:42:23.681Z,98699.72
2023-01-17T10:45:40.702Z,98704.22
2023-01-17T10:48:49.880Z,98709.25
2023-01-17T10:52:32.525Z,98691.44
2023-01-17T10:55:56.287Z,98693.47
2023-01-17T10:59:13.689Z,98691.50
2023-01-17T11:02:26.549Z,98691.94
2023-01-17T11:05:35.617Z,98675.66
2023-01-17T11:08:52.007Z,98681.63
2023-01-17T11:11:57.530Z,98679.91
2023-01-17T11:15:09.118Z,98687.69
2023-01-17T11:18:20.167Z,98676.88
2023-01-17T11:21:26.164Z,98685.38
2023-01-17T11:24:48.494Z,98675.34
2023-01-17T11:28:19.812Z,98673.88
2023-01-17T11:31:27.933Z,98655.63
2023-01-17T11:34:33.618Z,98640.00
2023-01-17T11:37:39.521Z,98624.22
2023-01-17T11:40:47.677Z,98617.00
2023-01-17T11:43:56.262Z,98617.72
2023-01-17T11:47:11.898Z,98626.16
2023-01-17T11:50:26.270Z,98625.47
2023-01-17T11:53:37.239Z,98611.84
2023-01-17T11:56:46.717Z,98602.03
2023-01-17T12:00:19.845Z,98584.25
2023-01-17T12:03:45.840Z,98574.38
2023-01-17T12:07:15.785Z,98559.31
2023-01-17T12:11:06.955Z,98556.88
2023-01-17T12:14:30.472Z,98552.44
2023-01-17T12:17:51.633Z,98541.72
2023-01-17T12:21:23.220Z,98541.50
2023-01-17T12:24:47.668Z,98533.56
2023-01-17T12:28:04.118Z,98525.53
2023-01-17T12:31:23.870Z,98504.47
2023-01-17T12:34:41.447Z,98486.75
2023-01-17T12:38:04.924Z,98474.63
2023-01-17T12:41:34.503Z,98473.75
2023-01-17T12:44:52.116Z,98463.59
2023-01-17T12:48:10.813Z,98455.78
2023-01-17T12:51:27.901Z,98448.28
2023-01-17T12:54:42.193Z,98442.00
2023-01-17T12:57:56.735Z,98436.75
2023-01-17T13:01:07.824Z,98432.97
2023-01-17T13:04:23.220Z,98405.47
2023-01-17T13:07:57.077Z,98408.75
2023-01-17T13:11:29.000Z,98410.66
2023-01-17T13:14:34.650Z,98413.00
2023-01-17T13:17:48.533Z,98408.06
2023-01-17T13:21:32.495Z,98401.47
2023-01-17T13:25:03.172Z,98396.69
2023-01-17T13:28:32.893Z,98379.78
2023-01-17T13:31:59.432Z,98372.66
2023-01-17T13:35:07.435Z,98363.94
2023-01-17T13:38:43.463Z,98360.50
2023-01-17T13:42:11.213Z,98359.22
2023-01-17T13:45:28.170Z,98355.47
2023-01-17T13:48:38.643Z,98356.81
2023-01-17T13:52:11.198Z,98368.47
2023-01-17T13:55:46.550Z,98372.41
2023-01-17T13:58:54.894Z,98361.81
2023-01-17T14:02:00.373Z,98344.88
2023-01-17T14:05:09.796Z,98326.09
2023-01-17T14:08:22.403Z,98313.94
2023-01-17T14:11:27.281Z,98316.34
2023-01-17T14:14:44.485Z,98307.09
2023-01-17T14:17:56.315Z,98302.78
2023-01-17T14:21:31.904Z,98321.03
2023-01-17T14:25:00.843Z,98323.72
2023-01-17T14:28:31.026Z,98329.25
2023-01-17T14:31:38.175Z,98334.25
2023-01-17T14:34:47.182Z,98331.38
2023-01-17T14:37:54.459Z,98329.28
2023-01-17T14:41:07.961Z,98340.66
2023-01-17T14:44:13.756Z,98334.03
2023-01-17T14:47:19.507Z,98322.97
2023-01-17T14:50:29.825Z,98343.31
2023-01-17T14:53:35.439Z,98348.06
2023-01-17T14:56:40.786Z,98353.88
2023-01-17T14:59:46.754Z,98354.66
2023-01-17T15:02:54.099Z,98365.75
2023-01-17T15:06:13.287Z,98382.44
2023-01-17T15:09:28.928Z,98388.47
2023-01-17T15:12:37.139Z,98383.19
2023-01-17T15:15:42.611Z,98370.75
2023-01-17T15:18:49.086Z,98360.44
2023-01-17T15:21:55.385Z,98365.44
2023-01-17T15:25:01.251Z,98359.59
2023-01-17T15:28:13.006Z,98371.75
2023-01-17T15:31:22.398Z,98369.66
2023-01-17T15:34:40.132Z,98367.31
2023-01-17T15:37:46.026Z,98372.22
2023-01-17T15:40:51.556Z,98379.91
2023-01-17T15:43:57.870Z,98386.03
2023-01-17T15:47:04.950Z,98377.75
2023-01-17T15:50:30.470Z,98394.09
2023-01-17T15:53:39.117Z,98393.16
2023-01-17T15:56:45.824Z,98385.44
2023-01-17T16:00:24.591Z,98384.69
2023-01-17T16:03:31.367Z,98398.97
2023-01-17T16:06:45.761Z,98393.75
2023-01-17T16:09:51.390Z,98411.72
2023-01-17T16:12:57.036Z,98413.47
2023-01-17T16:16:14.518Z,98429.41
2023-01-17T16:19:21.619Z,98428.66
2023-01-17T16:22:27.605Z,98428.66
2023-01-17T16:25:33.170Z,98437.44
2023-01-17T16:28:39.411Z,98428.44
2023-01-17T16:31:45.196Z,98422.38
2023-01-17T16:34:50.437Z,98437.44
2023-01-17T16:37:59.723Z,98442.25
2023-01-17T16:41:05.750Z,98452.31
2023-01-17T16:44:11.553Z,98447.00
2023-01-17T16:47:17.038Z,98453.28
2023-01-17T16:50:25.216Z,98452.81
2023-01-17T16:53:30.814Z,98453.59
2023-01-17T16:56:36.099Z,98449.03
2023-01-17T16:59:50.661Z,98444.84
2023-01-17T17:02:56.409Z,98445.38
2023-01-17T17:06:02.124Z,98433.16
2023-01-17T17:09:07.726Z,98433.09
2023-01-17T17:12:13.562Z,98446.50
2023-01-17T17:15:19.008Z,98454.31
2023-01-17T17:18:24.667Z,98464.34
2023-01-17T17:21:32.230Z,98474.72
2023-01-17T17:24:37.529Z,98469.94
2023-01-17T17:27:43.900Z,98469.06
2023-01-17T17:30:49.559Z,98466.81
2023-01-17T17:34:01.315Z,98463.94
2023-01-17T17:37:07.122Z,98465.56
2023-01-17T17:40:12.615Z,98462.72
2023-01-17T17:43:18.414Z,98458.78
2023-01-17T17:46:27.483Z,98463.59
2023-01-17T17:49:33.110Z,98474.38
2023-01-17T17:52:38.682Z,98491.44
2023-01-17T17:55:44.121Z,98502.22
2023-01-17T17:58:49.392Z,98521.72
2023-01-17T18:01:55.043Z,98527.84
2023-01-17T18:05:00.376Z,98528.34
2023-01-17T18:08:06.320Z,98527.06
2023-01-17T18:11:18.895Z,98526.31
2023-01-17T18:14:24.766Z,98533.69
2023-01-17T18:17:30.077Z,98537.16
2023-01-17T18:20:35.651Z,98534.22
2023-01-17T18:23:44.138Z,98523.47
2023-01-17T18:26:57.872Z,98518.72
2023-01-17T18:30:03.913Z,98527.00
2023-01-17T18:33:10.974Z,98524.75
2023-01-17T18:36:16.153Z,98530.28
2023-01-17T18:39:24.795Z,98540.94
2023-01-17T18:42:30.325Z,98544.94
2023-01-17T18:45:35.776Z,98552.19
2023-01-17T18:48:41.852Z,98564.44
2023-01-17T18:51:51.582Z,98559.69
2023-01-17T18:54:57.396Z,98560.88
2023-01-17T18:58:02.823Z,98547.88
2023-01-17T19:01:14.928Z,98543.41
2023-01-17T19:04:20.405Z,98542.47
2023-01-17T19:07:29.271Z,98528.28
2023-01-17T19:10:34.881Z,98534.97
2023-01-17T19:13:42.218Z,98541.28
2023-01-17T19:16:47.776Z,98529.38
2023-01-17T19:19:53.083Z,98515.31
2023-01-17T19:22:59.418Z,98517.47
2023-01-17T19:26:08.482Z,98517.19
2023-01-17T19:29:15.064Z,98527.78
2023-01-17T19:32:20.285Z,98523.34
2023-01-17T19:35:25.331Z,98522.63
2023-01-17T19:38:30.977Z,98527.03
2023-01-17T19:41:42.287Z,98533.56
2023-01-17T19:44:47.925Z,98530.66
2023-01-17T19:47:53.609Z,98534.81
2023-01-17T19:51:05.195Z,98531.00
2023-01-17T19:54:10.890Z,98523.03
2023-01-17T19:57:16.237Z,98523.59
2023-01-17T20:00:30.076Z,98518.41
2023-01-17T20:03:38.047Z,98515.81
2023-01-17T20:06:43.702Z,98507.13
2023-01-17T20:09:49.719Z,98508.72
2023-01-17T20:12:56.014Z,98493.16
2023-01-17T20:16:07.071Z,98491.94
2023-01-17T20:19:13.821Z,98489.78
2023-01-17T20:22:19.883Z,98492.66
2023-01-17T20:25:27.704Z,98477.16
2023-01-17T20:28:36.626Z,98488.00
2023-01-17T20:31:44.572Z,98495.94
2023-01-17T20:34:52.501Z,98487.59
2023-01-17T20:37:59.528Z,98491.88
2023-01-17T20:41:06.472Z,98484.13
2023-01-17T20:44:15.735Z,98479.25
2023-01-17T20:47:21.552Z,98481.81
2023-01-17T20:50:27.709Z,98482.59
2023-01-17T20:53:35.307Z,98477.16
2023-01-17T20:56:41.470Z,98478.06
2023-01-17T20:59:48.422Z,98474.97
2023-01-17T21:02:53.854Z,98476.53
2023-01-17T21:06:05.108Z,98480.91
2023-01-17T21:09:14.607Z,98473.13
2023-01-17T21:12:21.720Z,98481.50
2023-01-17T21:15:27.426Z,98479.09
2023-01-17T21:18:33.084Z,98489.75
2023-01-17T21:21:38.338Z,98496.34
2023-01-17T21:24:43.748Z,98494.53
2023-01-17T21:27:49.188Z,98493.59
2023-01-17T21:30:55.763Z,98485.53
2023-01-17T21:34:05.231Z,98484.59
2023-01-17T21:37:10.866Z,98484.31
2023-01-17T21:40:18.704Z,98485.47
2023-01-17T21:43:24.488Z,98493.63
2023-01-17T21:46:30.625Z,98505.25
2023-01-17T21:49:36.243Z,98489.34
2023-01-17T21:52:41.321Z,98487.25
2023-01-17T21:56:05.248Z,98484.72
2023-01-17T21:59:10.630Z,98493.31
2023-01-17T22:02:15.912Z,98503.06
2023-01-17T22:05:21.344Z,98508.63
2023-01-17T22:08:32.327Z,98507.88
2023-01-17T22:11:37.586Z,98503.41
2023-01-17T22:14:42.915Z,98510.28
2023-01-17T22:17:48.677Z,98505.25
2023-01-17T22:20:54.221Z,98519.50
2023-01-17T22:24:00.589Z,98509.97
2023-01-17T22:27:10.290Z,98517.38
2023-01-17T22:30:16.426Z,98519.69
2023-01-17T22:33:22.522Z,98524.56
2023-01-17T22:36:29.793Z,98527.28
2023-01-17T22:39:35.488Z,98527.28
2023-01-17T22:42:40.730Z,98517.91
2023-01-17T22:45:46.761Z,98522.16
2023-01-17T22:48:53.363Z,98522.25
2023-01-17T22:51:59.030Z,98520.66
2023-01-17T22:55:05.665Z,98529.84
2023-01-17T22:58:11.376Z,98521.84
2023-01-17T23:01:28.355Z,98515.16
2023-01-17T23:04:33.882Z,98516.97
2023-01-17T23:07:45.094Z,98510.06
2023-01-17T23:11:08.724Z,98510.56
2023-01-17T23:14:23.084Z,98519.34
2023-01-17T23:17:47.370Z,98498.97
2023-01-17T23:20:52.567Z,98498.84
2023-01-17T23:23:57.938Z,98488.72
2023-01-17T23:27:22.055Z,98487.69
2023-01-17T23:30:38.846Z,98502.84
2023-01-17T23:33:44.057Z,98502.56
2023-01-17T23:36:49.134Z,98504.88
2023-01-17T23:39:54.391Z,98510.66
2023-01-17T23:43:17.651Z,98517.63
2023-01-17T23:46:24.753Z,98524.59
2023-01-17T23:49:31.504Z,98522.91
2023-01-17T23:52:36.904Z,98518.50
2023-01-17T23:55:47.314Z,98507.69
2023-01-17T23:58:52.482Z,98500.91
